Time;durP1;ratioP1;P1;durP2;ratioP2;P2;SDS_P1;SDS_P2;PMS_P1;PMS_P2;Temp;Humidity;BMP_temperature;BMP_pressure;BME280_temperature;BME280_humidity;BME280_pressure;Samples;Min_cycle;Max_cycle;Signal;HPM_P1;HPM_P2
2023/12/23 00:00:55;;;;;;;5.57;1.27;;;;;;;;;;5012269;28;20183;-68
2023/12/23 00:03:20;;;;;;;12.43;1.87;;;;;;;;;;5014156;28;20181;-68
2023/12/23 00:05:46;;;;;;;6.63;1.13;;;;;;;;;;5012873;28;20225;-68
2023/12/23 00:08:11;;;;;;;5.00;1.10;;;;;;;;;;5014498;28;20203;-69
2023/12/23 00:10:36;;;;;;;8.90;1.30;;;;;;;;;;5014430;28;20203;-69
2023/12/23 00:13:01;;;;;;;8.93;1.77;;;;;;;;;;5013422;28;20197;-69
2023/12/23 00:15:26;;;;;;;3.93;0.80;;;;;;;;;;5015526;28;20179;-69
2023/12/23 00:17:52;;;;;;;9.00;1.43;;;;;;;;;;5014307;28;20187;-69
2023/12/23 00:20:17;;;;;;;4.43;1.50;;;;;;;;;;5016456;28;20207;-68
2023/12/23 00:22:42;;;;;;;6.93;1.17;;;;;;;;;;5013420;28;20194;-68
2023/12/23 00:25:07;;;;;;;6.57;1.67;;;;;;;;;;5013153;28;20187;-68
2023/12/23 00:27:32;;;;;;;5.50;1.27;;;;;;;;;;5013416;28;20187;-69
2023/12/23 00:29:58;;;;;;;7.40;1.53;;;;;;;;;;5009815;28;20202;-68
2023/12/23 00:32:23;;;;;;;7.27;1.07;;;;;;;;;;5013168;28;20285;-68
2023/12/23 00:34:48;;;;;;;3.90;1.70;;;;;;;;;;5013740;28;20808;-67
2023/12/23 00:37:13;;;;;;;4.43;1.50;;;;;;;;;;5010034;28;20187;-67
2023/12/23 00:39:40;;;;;;;5.57;1.77;;;;;;;;;;5014818;28;20198;-68
2023/12/23 00:42:05;;;;;;;7.33;1.60;;;;;;;;;;5013892;28;20179;-69
2023/12/23 00:44:30;;;;;;;6.20;1.60;;;;;;;;;;5012144;28;20464;-68
2023/12/23 00:46:56;;;;;;;6.07;1.73;;;;;;;;;;5013680;28;20199;-67
2023/12/23 00:49:21;;;;;;;13.87;1.60;;;;;;;;;;5023468;23;20245;-71
2023/12/23 00:51:46;;;;;;;10.73;1.60;;;;;;;;;;5012719;28;20191;-69
2023/12/23 00:54:11;;;;;;;6.60;1.40;;;;;;;;;;5012649;28;20171;-70
2023/12/23 00:56:37;;;;;;;4.37;1.60;;;;;;;;;;5013105;28;20228;-70
2023/12/23 00:59:02;;;;;;;5.00;1.17;;;;;;;;;;5013242;28;20637;-70
2023/12/23 01:01:27;;;;;;;8.27;1.70;;;;;;;;;;5014176;28;20182;-70
2023/12/23 01:03:52;;;;;;;6.33;1.57;;;;;;;;;;5012935;28;20183;-70
2023/12/23 01:06:17;;;;;;;11.00;1.43;;;;;;;;;;5012892;28;20233;-70
2023/12/23 01:08:42;;;;;;;8.67;1.20;;;;;;;;;;5015746;28;20221;-70
2023/12/23 01:11:09;;;;;;;11.30;2.50;;;;;;;;;;5012871;28;20570;-69
2023/12/23 01:13:34;;;;;;;10.83;1.97;;;;;;;;;;5013270;28;20661;-70
2023/12/23 01:15:59;;;;;;;9.73;1.97;;;;;;;;;;5012747;28;20195;-68
2023/12/23 01:18:25;;;;;;;7.93;1.60;;;;;;;;;;5014629;28;20203;-70
2023/12/23 01:20:50;;;;;;;6.43;1.80;;;;;;;;;;5012471;28;20206;-69
2023/12/23 01:23:15;;;;;;;10.37;2.03;;;;;;;;;;5011794;28;20646;-70
2023/12/23 01:25:40;;;;;;;3.87;2.00;;;;;;;;;;5012401;28;20554;-70
2023/12/23 01:28:06;;;;;;;7.90;1.97;;;;;;;;;;5013037;28;20206;-69
2023/12/23 01:30:31;;;;;;;7.43;2.10;;;;;;;;;;5013105;28;20305;-69
2023/12/23 01:32:57;;;;;;;6.27;1.70;;;;;;;;;;5011367;28;20187;-69
2023/12/23 01:35:22;;;;;;;5.60;1.70;;;;;;;;;;5011216;28;20175;-70
2023/12/23 01:37:47;;;;;;;8.07;1.60;;;;;;;;;;5013055;28;20242;-69
2023/12/23 01:40:12;;;;;;;10.07;2.60;;;;;;;;;;5011456;28;20198;-69
2023/12/23 01:42:37;;;;;;;8.33;2.23;;;;;;;;;;5013241;28;20179;-69
2023/12/23 01:45:03;;;;;;;12.93;2.70;;;;;;;;;;5012795;28;20178;-70
2023/12/23 01:47:28;;;;;;;10.53;3.13;;;;;;;;;;5014630;28;20205;-70
2023/12/23 01:49:56;;;;;;;17.60;2.80;;;;;;;;;;5013141;28;20686;-70
2023/12/23 01:52:21;;;;;;;18.37;2.97;;;;;;;;;;5015655;28;20182;-70
2023/12/23 01:54:46;;;;;;;12.67;3.47;;;;;;;;;;5012974;28;20183;-72
2023/12/23 01:57:11;;;;;;;5.50;2.37;;;;;;;;;;5012938;28;20186;-69
2023/12/23 01:59:36;;;;;;;8.93;2.60;;;;;;;;;;5012632;28;20195;-71
2023/12/23 02:02:02;;;;;;;7.57;2.27;;;;;;;;;;5012768;28;20663;-70
2023/12/23 02:04:27;;;;;;;12.10;2.83;;;;;;;;;;5012223;28;20631;-72
2023/12/23 02:06:52;;;;;;;11.07;2.17;;;;;;;;;;5011224;28;20693;-69
2023/12/23 02:09:18;;;;;;;11.00;2.70;;;;;;;;;;5013153;28;20194;-70
2023/12/23 02:11:59;;;;;;;7.67;2.37;;;;;;;;;;5016934;28;20247;-70
2023/12/23 02:14:27;;;;;;;8.83;2.30;;;;;;;;;;5012559;28;20182;-70
2023/12/23 02:16:52;;;;;;;3.90;2.27;;;;;;;;;;5011248;28;20186;-69
2023/12/23 02:19:17;;;;;;;13.83;3.20;;;;;;;;;;5012253;28;20211;-70
2023/12/23 02:21:43;;;;;;;7.00;1.93;;;;;;;;;;5011801;28;20225;-70
2023/12/23 02:24:08;;;;;;;10.17;2.30;;;;;;;;;;5010704;28;20250;-70
2023/12/23 02:26:33;;;;;;;8.40;2.43;;;;;;;;;;5012025;28;20234;-70
2023/12/23 02:29:00;;;;;;;11.60;2.70;;;;;;;;;;5011500;28;20277;-69
2023/12/23 02:31:26;;;;;;;10.63;2.57;;;;;;;;;;5011860;28;20186;-70
2023/12/23 02:33:51;;;;;;;8.60;2.27;;;;;;;;;;5019764;28;20257;-68
2023/12/23 02:36:20;;;;;;;9.33;3.03;;;;;;;;;;5016168;28;20254;-70
2023/12/23 02:38:45;;;;;;;7.90;2.50;;;;;;;;;;5014970;28;20198;-70
2023/12/23 02:41:11;;;;;;;8.17;2.37;;;;;;;;;;5011497;28;20210;-70
2023/12/23 02:43:36;;;;;;;6.70;2.17;;;;;;;;;;5014129;28;20547;-70
2023/12/23 02:46:01;;;;;;;12.77;3.60;;;;;;;;;;5018816;28;20187;-70
2023/12/23 02:48:26;;;;;;;9.13;3.17;;;;;;;;;;5010305;28;20202;-70
2023/12/23 02:50:51;;;;;;;6.50;1.70;;;;;;;;;;5011083;28;20222;-70
2023/12/23 02:53:17;;;;;;;10.63;2.17;;;;;;;;;;5009678;28;20552;-71
2023/12/23 02:55:42;;;;;;;12.23;2.67;;;;;;;;;;5010721;28;20225;-70
2023/12/23 02:58:09;;;;;;;10.53;2.50;;;;;;;;;;5013905;28;20277;-69
2023/12/23 03:00:34;;;;;;;7.10;1.97;;;;;;;;;;5011692;28;20186;-69
2023/12/23 03:03:00;;;;;;;5.00;1.57;;;;;;;;;;5010765;28;20193;-71
2023/12/23 03:05:25;;;;;;;8.93;2.83;;;;;;;;;;5011564;28;20174;-69
2023/12/23 03:07:50;;;;;;;11.30;3.10;;;;;;;;;;5013321;28;20210;-70
2023/12/23 03:10:15;;;;;;;5.37;1.63;;;;;;;;;;5014638;28;20195;-69
2023/12/23 03:12:41;;;;;;;7.77;2.07;;;;;;;;;;5010761;28;20175;-70
2023/12/23 03:15:07;;;;;;;4.03;2.00;;;;;;;;;;5011632;28;20579;-70
2023/12/23 03:17:32;;;;;;;15.87;2.40;;;;;;;;;;5012658;28;20182;-70
2023/12/23 03:19:58;;;;;;;5.90;1.33;;;;;;;;;;5012370;28;20198;-70
2023/12/23 03:22:23;;;;;;;9.83;1.90;;;;;;;;;;5009444;28;20274;-69
2023/12/23 03:24:49;;;;;;;11.23;3.30;;;;;;;;;;5010437;28;20273;-69
2023/12/23 03:27:14;;;;;;;15.77;2.20;;;;;;;;;;5011481;28;20554;-69
2023/12/23 03:29:39;;;;;;;10.13;2.20;;;;;;;;;;5008196;28;20641;-69
2023/12/23 03:32:05;;;;;;;12.60;1.80;;;;;;;;;;5009734;28;20658;-69
2023/12/23 03:34:30;;;;;;;4.03;1.33;;;;;;;;;;5008812;28;20178;-68
2023/12/23 03:36:55;;;;;;;6.87;1.57;;;;;;;;;;5009944;28;20183;-69
2023/12/23 03:39:20;;;;;;;3.33;1.63;;;;;;;;;;5010896;28;20694;-69
2023/12/23 03:41:45;;;;;;;4.43;1.43;;;;;;;;;;5009815;28;20187;-70
2023/12/23 03:44:11;;;;;;;6.23;1.37;;;;;;;;;;5010621;28;20174;-69
2023/12/23 03:46:36;;;;;;;10.17;1.30;;;;;;;;;;5010017;28;20217;-70
2023/12/23 03:49:01;;;;;;;8.77;1.77;;;;;;;;;;5012104;28;20261;-69
2023/12/23 03:51:26;;;;;;;8.73;1.63;;;;;;;;;;5011219;28;20171;-69
2023/12/23 03:53:51;;;;;;;12.80;2.33;;;;;;;;;;5014179;28;20175;-69
2023/12/23 03:56:17;;;;;;;11.53;1.80;;;;;;;;;;5010997;28;20175;-70
2023/12/23 03:58:42;;;;;;;15.90;1.50;;;;;;;;;;5009955;28;20179;-71
2023/12/23 04:01:07;;;;;;;6.57;1.70;;;;;;;;;;5012652;28;20269;-69
2023/12/23 04:03:32;;;;;;;8.57;2.10;;;;;;;;;;5011183;28;20222;-69
2023/12/23 04:05:58;;;;;;;8.63;1.70;;;;;;;;;;5010172;28;20202;-70
2023/12/23 04:08:23;;;;;;;10.27;2.67;;;;;;;;;;5011026;28;20207;-70
2023/12/23 04:10:48;;;;;;;12.57;1.63;;;;;;;;;;5010470;28;20285;-69
2023/12/23 04:13:16;;;;;;;9.77;1.60;;;;;;;;;;5009822;28;20183;-69
2023/12/23 04:15:41;;;;;;;12.93;2.53;;;;;;;;;;5009846;28;20202;-70
2023/12/23 04:18:06;;;;;;;9.93;2.00;;;;;;;;;;5011219;28;20238;-70
2023/12/23 04:20:31;;;;;;;9.67;2.97;;;;;;;;;;5010352;28;20187;-70
2023/12/23 04:22:56;;;;;;;6.13;1.80;;;;;;;;;;5009737;28;20737;-70
2023/12/23 04:25:22;;;;;;;9.87;1.63;;;;;;;;;;5012590;28;20764;-70
2023/12/23 04:27:48;;;;;;;7.70;1.57;;;;;;;;;;5008950;28;20207;-70
2023/12/23 04:30:13;;;;;;;6.90;1.37;;;;;;;;;;5008722;28;20697;-70
2023/12/23 04:32:38;;;;;;;11.27;2.30;;;;;;;;;;5010332;28;20171;-70
2023/12/23 04:35:04;;;;;;;11.93;2.07;;;;;;;;;;5010122;28;20186;-69
2023/12/23 04:37:29;;;;;;;10.53;1.93;;;;;;;;;;5010031;28;20179;-69
2023/12/23 04:39:54;;;;;;;5.20;1.90;;;;;;;;;;5009244;28;20235;-69
2023/12/23 04:42:19;;;;;;;6.30;1.53;;;;;;;;;;5010821;28;20265;-70
2023/12/23 04:44:45;;;;;;;7.63;1.80;;;;;;;;;;5008285;28;20174;-70
2023/12/23 04:47:10;;;;;;;7.93;1.80;;;;;;;;;;5012301;28;20277;-70
2023/12/23 04:49:35;;;;;;;9.50;1.90;;;;;;;;;;5008678;28;20234;-70
2023/12/23 04:52:00;;;;;;;6.57;1.57;;;;;;;;;;5016405;28;20257;-70
2023/12/23 04:54:25;;;;;;;10.00;1.80;;;;;;;;;;5005437;28;20171;-70
2023/12/23 04:56:51;;;;;;;7.20;2.53;;;;;;;;;;5018555;28;20252;-70
2023/12/23 04:59:16;;;;;;;6.93;1.50;;;;;;;;;;5009228;28;20199;-69
2023/12/23 05:01:41;;;;;;;8.33;1.77;;;;;;;;;;5017207;28;20194;-70
2023/12/23 05:04:06;;;;;;;8.93;2.27;;;;;;;;;;5014004;28;20194;-69
2023/12/23 05:06:31;;;;;;;12.43;1.77;;;;;;;;;;5016116;28;20258;-70
2023/12/23 05:08:57;;;;;;;10.07;2.33;;;;;;;;;;5015438;28;20642;-69
2023/12/23 05:11:22;;;;;;;6.67;1.60;;;;;;;;;;5015154;28;20236;-69
2023/12/23 05:13:47;;;;;;;13.13;1.97;;;;;;;;;;5016209;28;20175;-68
2023/12/23 05:16:12;;;;;;;9.33;2.07;;;;;;;;;;5012703;28;20182;-69
2023/12/23 05:18:37;;;;;;;5.60;1.13;;;;;;;;;;5013264;28;20680;-69
2023/12/23 05:21:03;;;;;;;8.60;1.70;;;;;;;;;;5011188;28;20297;-69
2023/12/23 05:23:28;;;;;;;9.03;1.97;;;;;;;;;;5012591;28;20553;-69
2023/12/23 05:25:54;;;;;;;12.27;1.87;;;;;;;;;;5012261;28;20647;-71
2023/12/23 05:28:20;;;;;;;7.23;1.63;;;;;;;;;;5013470;28;20211;-71
2023/12/23 05:30:45;;;;;;;6.53;1.60;;;;;;;;;;5010228;28;20649;-70
2023/12/23 05:33:10;;;;;;;9.30;1.83;;;;;;;;;;5012941;28;20179;-70
2023/12/23 05:35:35;;;;;;;13.70;1.87;;;;;;;;;;5012969;28;20175;-69
2023/12/23 05:38:01;;;;;;;11.10;2.40;;;;;;;;;;5011689;28;20194;-69
2023/12/23 05:40:26;;;;;;;6.43;2.60;;;;;;;;;;5011114;28;20203;-71
2023/12/23 05:42:51;;;;;;;9.90;1.43;;;;;;;;;;5011819;28;20239;-70
2023/12/23 05:45:16;;;;;;;9.00;1.97;;;;;;;;;;5012298;28;20175;-68
2023/12/23 05:47:43;;;;;;;8.00;1.73;;;;;;;;;;5015468;28;20193;-69
2023/12/23 05:50:09;;;;;;;7.10;1.57;;;;;;;;;;5012568;28;20244;-69
2023/12/23 05:52:34;;;;;;;8.80;2.17;;;;;;;;;;5014956;28;20163;-69
2023/12/23 05:55:00;;;;;;;7.20;1.97;;;;;;;;;;5013356;28;20182;-71
2023/12/23 05:57:25;;;;;;;7.17;2.13;;;;;;;;;;5012982;28;20673;-70
2023/12/23 05:59:50;;;;;;;7.83;1.73;;;;;;;;;;5013439;28;20209;-69
2023/12/23 06:02:15;;;;;;;8.00;1.70;;;;;;;;;;5010997;28;20189;-69
2023/12/23 06:04:40;;;;;;;6.47;2.50;;;;;;;;;;5015603;28;20198;-70
2023/12/23 06:07:05;;;;;;;5.43;1.50;;;;;;;;;;5013093;28;20286;-72
2023/12/23 06:09:31;;;;;;;7.40;2.13;;;;;;;;;;5012334;28;20182;-69
2023/12/23 06:11:56;;;;;;;8.87;1.40;;;;;;;;;;5010840;28;20179;-70
2023/12/23 06:14:21;;;;;;;10.10;1.93;;;;;;;;;;5014679;28;20194;-69
2023/12/23 06:16:46;;;;;;;7.67;1.77;;;;;;;;;;5011119;28;20294;-69
2023/12/23 06:19:11;;;;;;;8.67;2.03;;;;;;;;;;5015337;28;20221;-68
2023/12/23 06:21:37;;;;;;;5.97;1.60;;;;;;;;;;5013906;28;20202;-69
2023/12/23 06:24:02;;;;;;;10.60;1.97;;;;;;;;;;5012270;28;20213;-69
2023/12/23 06:26:28;;;;;;;16.83;4.43;;;;;;;;;;5011542;28;20179;-69
2023/12/23 06:28:53;;;;;;;7.90;1.50;;;;;;;;;;5010645;28;20179;-69
2023/12/23 06:31:18;;;;;;;7.77;1.93;;;;;;;;;;5010866;28;20241;-70
2023/12/23 06:33:43;;;;;;;12.63;2.50;;;;;;;;;;5011591;28;20689;-70
2023/12/23 06:36:08;;;;;;;7.87;2.10;;;;;;;;;;5011620;28;20191;-70
2023/12/23 06:38:34;;;;;;;6.73;2.73;;;;;;;;;;5012249;28;20171;-70
2023/12/23 06:40:59;;;;;;;16.53;2.40;;;;;;;;;;5013448;28;20199;-69
2023/12/23 06:43:24;;;;;;;9.40;2.20;;;;;;;;;;5012893;28;20236;-71
2023/12/23 06:45:50;;;;;;;7.30;2.17;;;;;;;;;;5014691;28;20210;-69
2023/12/23 06:48:15;;;;;;;17.50;2.67;;;;;;;;;;5012342;28;20709;-69
2023/12/23 06:50:40;;;;;;;8.53;2.10;;;;;;;;;;5010442;22;20231;-71
2023/12/23 06:53:06;;;;;;;7.07;2.03;;;;;;;;;;4989838;28;20185;-71
2023/12/23 06:55:31;;;;;;;10.10;2.00;;;;;;;;;;4990900;28;20206;-71
2023/12/23 06:57:57;;;;;;;9.13;2.27;;;;;;;;;;4991569;28;20199;-71
2023/12/23 07:00:22;;;;;;;4.90;1.47;;;;;;;;;;4990992;28;20218;-71
2023/12/23 07:02:49;;;;;;;8.53;2.23;;;;;;;;;;4989423;28;20187;-70
2023/12/23 07:05:14;;;;;;;6.73;2.20;;;;;;;;;;4991434;28;20188;-70
2023/12/23 07:07:39;;;;;;;8.43;2.60;;;;;;;;;;4990982;28;20207;-71
2023/12/23 07:10:05;;;;;;;8.37;1.97;;;;;;;;;;4991006;28;20279;-71
2023/12/23 07:12:30;;;;;;;9.13;2.30;;;;;;;;;;4989945;28;20194;-71
2023/12/23 07:14:55;;;;;;;6.57;1.93;;;;;;;;;;4991756;28;20555;-71
2023/12/23 07:17:20;;;;;;;11.73;2.30;;;;;;;;;;4990822;28;20218;-71
2023/12/23 07:19:46;;;;;;;7.90;1.43;;;;;;;;;;4991176;28;20512;-72
2023/12/23 07:22:11;;;;;;;5.63;2.00;;;;;;;;;;4990553;28;20187;-72
2023/12/23 07:24:38;;;;;;;12.27;2.07;;;;;;;;;;4992373;28;20226;-71
2023/12/23 07:27:04;;;;;;;9.67;1.67;;;;;;;;;;4989991;28;20569;-71
2023/12/23 07:29:29;;;;;;;12.53;3.83;;;;;;;;;;4991524;28;20253;-71
2023/12/23 07:31:54;;;;;;;5.73;1.50;;;;;;;;;;4986791;28;20183;-72
2023/12/23 07:34:19;;;;;;;9.23;1.90;;;;;;;;;;4990005;28;20175;-72
2023/12/23 07:36:45;;;;;;;9.50;1.90;;;;;;;;;;4989417;28;20214;-72
2023/12/23 07:39:10;;;;;;;9.10;3.07;;;;;;;;;;4990804;28;20183;-71
2023/12/23 07:41:35;;;;;;;13.60;2.10;;;;;;;;;;4988716;28;20542;-71
2023/12/23 07:44:01;;;;;;;6.90;2.27;;;;;;;;;;4989987;28;20183;-72
2023/12/23 07:46:26;;;;;;;6.37;1.90;;;;;;;;;;4990259;28;20183;-72
2023/12/23 07:48:51;;;;;;;11.90;2.00;;;;;;;;;;4992288;28;20179;-71
2023/12/23 07:51:18;;;;;;;5.93;1.40;;;;;;;;;;4991692;28;20207;-72
2023/12/23 07:53:43;;;;;;;12.20;1.93;;;;;;;;;;4991769;28;20176;-71
2023/12/23 07:56:09;;;;;;;15.40;2.07;;;;;;;;;;4991780;28;20647;-72
2023/12/23 07:58:34;;;;;;;14.60;2.50;;;;;;;;;;4990657;28;20560;-72
2023/12/23 08:01:01;;;;;;;7.80;1.77;;;;;;;;;;4989555;28;20207;-71
2023/12/23 08:03:26;;;;;;;10.50;1.90;;;;;;;;;;4987317;28;20568;-70
2023/12/23 08:05:51;;;;;;;11.83;1.87;;;;;;;;;;4990257;28;20195;-71
2023/12/23 08:08:16;;;;;;;6.97;2.07;;;;;;;;;;4990452;28;20628;-71
2023/12/23 08:10:41;;;;;;;11.33;2.00;;;;;;;;;;4989555;28;20204;-71
2023/12/23 08:13:07;;;;;;;7.17;1.33;;;;;;;;;;4989512;28;20286;-71
2023/12/23 08:15:32;;;;;;;10.13;1.83;;;;;;;;;;4989928;28;20204;-71
2023/12/23 08:17:57;;;;;;;12.37;1.97;;;;;;;;;;4990531;28;20184;-71
2023/12/23 08:20:22;;;;;;;8.97;2.63;;;;;;;;;;4989902;28;20199;-71
2023/12/23 08:22:48;;;;;;;7.40;1.87;;;;;;;;;;4991713;28;20186;-71
2023/12/23 08:25:13;;;;;;;4.93;1.83;;;;;;;;;;4994248;28;20244;-72
2023/12/23 08:27:38;;;;;;;7.10;2.27;;;;;;;;;;4993647;28;20238;-71
2023/12/23 08:30:04;;;;;;;5.13;2.33;;;;;;;;;;4991685;28;20191;-71
2023/12/23 08:32:29;;;;;;;8.47;2.03;;;;;;;;;;4992620;28;20233;-72
2023/12/23 08:34:55;;;;;;;8.60;2.50;;;;;;;;;;4992377;28;20179;-71
2023/12/23 08:37:20;;;;;;;7.60;1.57;;;;;;;;;;4993691;28;20176;-71
2023/12/23 08:39:45;;;;;;;9.47;2.03;;;;;;;;;;4992801;28;20257;-71
2023/12/23 08:42:11;;;;;;;7.93;1.67;;;;;;;;;;4992357;28;20198;-71
2023/12/23 08:44:36;;;;;;;8.63;1.80;;;;;;;;;;4989783;28;20187;-71
2023/12/23 08:47:01;;;;;;;5.67;1.30;;;;;;;;;;4986276;28;20196;-71
2023/12/23 08:49:26;;;;;;;6.57;2.13;;;;;;;;;;4991381;28;20197;-70
2023/12/23 08:51:51;;;;;;;4.23;1.27;;;;;;;;;;4989524;28;20179;-71
2023/12/23 08:54:17;;;;;;;7.73;1.90;;;;;;;;;;4990155;28;20175;-71
2023/12/23 08:56:42;;;;;;;8.40;1.73;;;;;;;;;;4989666;28;20204;-72
2023/12/23 08:59:07;;;;;;;6.13;2.33;;;;;;;;;;4992431;28;20195;-70
2023/12/23 09:01:32;;;;;;;5.60;2.00;;;;;;;;;;4992905;28;20528;-70
2023/12/23 09:03:57;;;;;;;9.23;1.70;;;;;;;;;;4993498;28;20199;-70
2023/12/23 09:06:23;;;;;;;9.27;2.27;;;;;;;;;;4991748;28;20196;-70
2023/12/23 09:08:51;;;;;;;4.17;1.60;;;;;;;;;;4992786;28;20291;-71
2023/12/23 09:11:16;;;;;;;4.63;1.33;;;;;;;;;;4992927;28;20583;-69
2023/12/23 09:13:41;;;;;;;8.33;2.47;;;;;;;;;;4993279;28;20186;-70
2023/12/23 09:16:06;;;;;;;9.77;2.03;;;;;;;;;;4991671;28;20175;-70
2023/12/23 09:18:32;;;;;;;5.33;1.47;;;;;;;;;;4988332;28;20188;-70
2023/12/23 09:20:57;;;;;;;6.77;1.73;;;;;;;;;;4988287;28;20212;-70
2023/12/23 09:23:22;;;;;;;10.57;2.23;;;;;;;;;;4987648;28;20206;-70
2023/12/23 09:25:47;;;;;;;3.47;1.30;;;;;;;;;;4990758;28;20729;-71
2023/12/23 09:28:13;;;;;;;5.77;2.13;;;;;;;;;;4984428;28;20517;-72
2023/12/23 09:30:39;;;;;;;8.20;2.77;;;;;;;;;;4988636;28;20204;-71
2023/12/23 09:33:05;;;;;;;11.23;2.53;;;;;;;;;;4985866;28;20557;-72
2023/12/23 09:35:31;;;;;;;8.47;2.23;;;;;;;;;;4988625;28;20859;-72
2023/12/23 09:37:56;;;;;;;8.03;1.70;;;;;;;;;;4986362;28;20205;-72
2023/12/23 09:40:21;;;;;;;6.40;1.30;;;;;;;;;;4990672;28;20195;-71
2023/12/23 09:42:47;;;;;;;3.35;1.35;;;;;;;;;;4988650;28;20214;-72
2023/12/23 09:45:13;;;;;;;10.00;1.67;;;;;;;;;;4991911;28;20603;-71
2023/12/23 09:47:38;;;;;;;6.20;2.10;;;;;;;;;;4991527;28;20195;-71
2023/12/23 09:50:04;;;;;;;8.20;1.70;;;;;;;;;;4992986;28;20601;-70
2023/12/23 09:52:29;;;;;;;7.20;1.73;;;;;;;;;;4991886;28;20175;-71
2023/12/23 09:54:57;;;;;;;12.63;2.17;;;;;;;;;;4990512;28;20313;-70
2023/12/23 09:57:22;;;;;;;8.13;2.00;;;;;;;;;;4991081;28;20199;-71
2023/12/23 09:59:54;;;;;;;8.50;1.90;;;;;;;;;;4992716;28;20203;-71
2023/12/23 10:02:19;;;;;;;5.20;1.83;;;;;;;;;;4989370;28;20183;-71
2023/12/23 10:04:44;;;;;;;5.90;1.87;;;;;;;;;;4992059;28;20187;-72
2023/12/23 10:07:09;;;;;;;6.87;1.37;;;;;;;;;;4991316;28;20202;-70
2023/12/23 10:09:35;;;;;;;6.10;1.57;;;;;;;;;;4990380;28;20254;-70
2023/12/23 10:12:01;;;;;;;8.82;1.27;;;;;;;;;;4988955;28;20179;-70
2023/12/23 10:14:26;;;;;;;6.63;2.13;;;;;;;;;;4992024;28;20171;-71
2023/12/23 10:16:51;;;;;;;12.00;2.80;;;;;;;;;;4991798;28;20234;-70
2023/12/23 10:19:16;;;;;;;4.30;1.63;;;;;;;;;;4985257;28;20241;-71
2023/12/23 10:21:41;;;;;;;6.47;1.70;;;;;;;;;;4991179;28;20187;-70
2023/12/23 10:24:07;;;;;;;7.65;2.10;;;;;;;;;;4993744;28;20180;-70
2023/12/23 10:26:33;;;;;;;8.85;1.85;;;;;;;;;;4999134;28;20187;-71
2023/12/23 10:29:01;;;;;;;13.30;2.33;;;;;;;;;;4995733;28;20250;-70
2023/12/23 10:31:29;;;;;;;6.95;1.83;;;;;;;;;;4991056;28;20631;-70
2023/12/23 10:33:56;;;;;;;9.23;2.22;;;;;;;;;;4990734;28;20678;-70
2023/12/23 10:36:22;;;;;;;6.10;1.88;;;;;;;;;;4990955;28;20183;-70
2023/12/23 10:38:49;;;;;;;4.28;1.48;;;;;;;;;;4990932;28;20274;-70
2023/12/23 10:41:29;;;;;;;6.63;1.23;;;;;;;;;;4989335;28;20283;-70
2023/12/23 10:43:54;;;;;;;7.53;1.65;;;;;;;;;;4991020;28;20258;-69
2023/12/23 10:46:21;;;;;;;6.00;1.65;;;;;;;;;;4991408;28;20570;-70
2023/12/23 10:48:46;;;;;;;4.43;1.48;;;;;;;;;;4991501;28;20215;-70
2023/12/23 10:51:12;;;;;;;5.30;1.38;;;;;;;;;;4991656;28;20285;-71
2023/12/23 10:53:37;;;;;;;5.35;1.45;;;;;;;;;;4989661;28;20182;-71
2023/12/23 10:56:03;;;;;;;4.25;1.55;;;;;;;;;;4991603;28;20254;-70
2023/12/23 10:58:29;;;;;;;6.78;1.65;;;;;;;;;;4991305;28;20529;-70
2023/12/23 11:00:55;;;;;;;5.93;1.35;;;;;;;;;;4990451;28;20717;-71
2023/12/23 11:03:21;;;;;;;5.78;1.45;;;;;;;;;;4991087;28;20648;-70
2023/12/23 11:05:47;;;;;;;2.55;0.90;;;;;;;;;;4987045;28;20195;-71
2023/12/23 11:08:14;;;;;;;5.05;0.95;;;;;;;;;;4988546;28;20203;-71
2023/12/23 11:10:41;;;;;;;3.33;1.00;;;;;;;;;;4987342;28;20234;-71
2023/12/23 11:13:07;;;;;;;7.95;1.05;;;;;;;;;;4990299;28;20263;-70
2023/12/23 11:15:32;;;;;;;7.57;1.40;;;;;;;;;;4990243;28;20194;-70
2023/12/23 11:17:57;;;;;;;3.60;1.33;;;;;;;;;;4990634;28;20710;-71
2023/12/23 11:20:33;;;;;;;5.05;0.95;;;;;;;;;;4988816;28;20199;-70
2023/12/23 11:23:17;;;;;;;4.07;1.38;;;;;;;;;;4990915;28;20666;-71
2023/12/23 11:25:42;;;;;;;4.30;1.60;;;;;;;;;;4988185;28;20211;-71
2023/12/23 11:28:12;;;;;;;4.82;1.85;;;;;;;;;;4985913;28;20250;-71
2023/12/23 11:30:52;;;;;;;3.22;1.05;;;;;;;;;;4989243;28;20195;-71
2023/12/23 11:33:20;;;;;;;4.78;1.15;;;;;;;;;;4990120;28;20218;-71
2023/12/23 11:35:53;;;;;;;8.55;1.10;;;;;;;;;;4990140;28;20184;-71
2023/12/23 11:38:22;;;;;;;5.00;1.60;;;;;;;;;;4991050;28;20179;-71
2023/12/23 11:40:48;;;;;;;5.30;2.25;;;;;;;;;;4987407;28;20207;-70
2023/12/23 11:43:15;;;;;;;4.72;1.00;;;;;;;;;;4989733;28;20188;-70
2023/12/23 11:45:41;;;;;;;7.47;1.30;;;;;;;;;;4989923;28;20184;-71
2023/12/23 11:48:07;;;;;;;7.82;1.45;;;;;;;;;;4990217;28;20214;-70
2023/12/23 11:50:32;;;;;;;7.38;1.27;;;;;;;;;;4989857;28;20219;-70
2023/12/23 11:52:57;;;;;;;4.18;1.15;;;;;;;;;;4990178;28;20188;-70
2023/12/23 11:55:23;;;;;;;5.03;1.10;;;;;;;;;;4990177;28;20203;-70
2023/12/23 11:57:48;;;;;;;5.18;1.05;;;;;;;;;;4992681;28;20226;-71
2023/12/23 12:00:13;;;;;;;5.72;1.38;;;;;;;;;;4993492;28;20304;-71
2023/12/23 12:02:39;;;;;;;2.60;0.98;;;;;;;;;;4993979;28;20179;-70
2023/12/23 12:05:05;;;;;;;16.42;1.63;;;;;;;;;;4994326;28;20180;-70
2023/12/23 12:07:30;;;;;;;3.45;0.90;;;;;;;;;;4994345;28;20210;-71
2023/12/23 12:09:55;;;;;;;2.95;1.02;;;;;;;;;;4994498;28;20199;-71
2023/12/23 12:12:21;;;;;;;6.90;1.63;;;;;;;;;;4994007;28;20241;-70
2023/12/23 12:14:46;;;;;;;5.30;0.82;;;;;;;;;;4993435;28;20191;-71
2023/12/23 12:17:11;;;;;;;3.45;0.80;;;;;;;;;;4994161;28;20310;-70
2023/12/23 12:19:36;;;;;;;5.05;1.25;;;;;;;;;;4992999;28;20199;-70
2023/12/23 12:22:03;;;;;;;7.35;1.63;;;;;;;;;;4993615;28;20195;-70
2023/12/23 12:24:28;;;;;;;4.05;1.35;;;;;;;;;;4994343;28;20640;-70
2023/12/23 12:26:55;;;;;;;10.25;1.08;;;;;;;;;;4993471;28;20207;-71
2023/12/23 12:29:21;;;;;;;3.58;0.90;;;;;;;;;;4991913;28;20172;-70
2023/12/23 12:31:46;;;;;;;6.60;0.85;;;;;;;;;;4992771;28;20254;-70
2023/12/23 12:34:12;;;;;;;6.13;1.13;;;;;;;;;;4993327;28;20222;-71
2023/12/23 12:36:37;;;;;;;4.35;0.95;;;;;;;;;;4993672;28;20183;-70
2023/12/23 12:39:02;;;;;;;4.38;1.23;;;;;;;;;;4992863;28;20254;-70
2023/12/23 12:41:27;;;;;;;1.73;0.77;;;;;;;;;;4992514;28;20578;-71
2023/12/23 12:43:54;;;;;;;4.57;1.30;;;;;;;;;;4993277;28;20179;-71
2023/12/23 12:46:19;;;;;;;5.97;0.93;;;;;;;;;;4993671;28;20218;-70
2023/12/23 12:48:45;;;;;;;3.03;0.90;;;;;;;;;;4993748;28;20231;-70
2023/12/23 12:51:11;;;;;;;7.40;1.50;;;;;;;;;;4991751;28;20210;-68
2023/12/23 12:53:36;;;;;;;2.63;0.88;;;;;;;;;;4993798;28;20172;-68
2023/12/23 12:56:08;;;;;;;7.30;1.17;;;;;;;;;;4992470;28;20218;-68
2023/12/23 12:58:34;;;;;;;3.38;1.13;;;;;;;;;;4992831;28;20621;-68
2023/12/23 13:00:59;;;;;;;4.40;0.75;;;;;;;;;;4991672;28;20330;-68
2023/12/23 13:03:24;;;;;;;3.72;1.23;;;;;;;;;;4991375;28;20199;-68
2023/12/23 13:05:50;;;;;;;3.42;0.82;;;;;;;;;;4992935;28;20183;-68
2023/12/23 13:08:15;;;;;;;4.82;1.00;;;;;;;;;;4993268;28;20611;-68
2023/12/23 13:10:40;;;;;;;4.30;0.65;;;;;;;;;;4993315;28;20210;-69
2023/12/23 13:13:05;;;;;;;5.03;1.00;;;;;;;;;;4992873;28;20549;-68
2023/12/23 13:15:30;;;;;;;6.07;0.75;;;;;;;;;;5008178;28;20176;-69
2023/12/23 13:17:56;;;;;;;8.23;1.48;;;;;;;;;;4993204;28;20198;-69
2023/12/23 13:20:21;;;;;;;5.93;1.05;;;;;;;;;;4992927;28;20192;-69
2023/12/23 13:22:46;;;;;;;6.18;0.85;;;;;;;;;;4992399;28;20190;-68
2023/12/23 13:25:12;;;;;;;2.35;0.93;;;;;;;;;;4992036;28;20180;-69
2023/12/23 13:27:37;;;;;;;3.88;0.73;;;;;;;;;;4993304;28;20684;-69
2023/12/23 13:30:03;;;;;;;7.10;1.58;;;;;;;;;;4993301;28;20204;-68
2023/12/23 13:32:28;;;;;;;4.60;0.90;;;;;;;;;;4990608;28;20709;-69
2023/12/23 13:34:55;;;;;;;5.97;1.23;;;;;;;;;;4992242;28;20187;-69
2023/12/23 13:37:20;;;;;;;6.88;1.60;;;;;;;;;;4991236;28;20179;-69
2023/12/23 13:39:45;;;;;;;4.82;1.08;;;;;;;;;;4992670;28;20239;-69
2023/12/23 13:42:10;;;;;;;6.60;1.58;;;;;;;;;;4992646;28;20182;-68
2023/12/23 13:44:35;;;;;;;6.88;0.93;;;;;;;;;;4987645;28;20180;-69
2023/12/23 13:47:02;;;;;;;4.55;1.40;;;;;;;;;;4989766;28;20537;-69
2023/12/23 13:49:27;;;;;;;6.60;3.00;;;;;;;;;;4992207;28;20211;-68
2023/12/23 13:51:52;;;;;;;11.10;1.65;;;;;;;;;;4992059;28;20164;-68
2023/12/23 13:54:17;;;;;;;6.32;1.40;;;;;;;;;;4992883;28;20614;-68
2023/12/23 13:56:44;;;;;;;4.65;1.45;;;;;;;;;;4990973;28;20202;-69
2023/12/23 13:59:09;;;;;;;8.00;1.80;;;;;;;;;;4990627;28;20198;-68
2023/12/23 14:01:35;;;;;;;5.90;1.42;;;;;;;;;;4991749;28;20271;-69
2023/12/23 14:04:00;;;;;;;8.75;1.15;;;;;;;;;;4992495;28;20210;-68
2023/12/23 14:06:25;;;;;;;6.80;1.83;;;;;;;;;;4991835;28;20172;-69
2023/12/23 14:08:50;;;;;;;7.55;1.17;;;;;;;;;;4990316;28;20598;-68
2023/12/23 14:11:15;;;;;;;3.38;1.08;;;;;;;;;;4991693;28;20750;-69
2023/12/23 14:13:40;;;;;;;4.28;1.17;;;;;;;;;;4989840;28;20176;-68
2023/12/23 14:16:07;;;;;;;4.72;1.73;;;;;;;;;;4987417;28;20184;-69
2023/12/23 14:18:32;;;;;;;12.32;9.55;;;;;;;;;;4991501;28;20249;-69
2023/12/23 14:20:57;;;;;;;17.33;11.27;;;;;;;;;;4990341;28;20203;-69
2023/12/23 14:23:22;;;;;;;6.20;1.60;;;;;;;;;;4991236;28;20647;-69
2023/12/23 14:25:47;;;;;;;7.53;1.00;;;;;;;;;;4990179;28;20482;-69
2023/12/23 14:28:13;;;;;;;9.40;1.90;;;;;;;;;;4991557;28;20211;-68
2023/12/23 14:30:39;;;;;;;2.97;1.00;;;;;;;;;;4990201;28;20301;-69